Time;durP1;ratioP1;P1;durP2;ratioP2;P2;SDS_P1;SDS_P2;PMS_P1;PMS_P2;Temp;Humidity;BMP_temperature;BMP_pressure;BME280_temperature;BME280_humidity;BME280_pressure;Samples;Min_cycle;Max_cycle;Signal;HPM_P1;HPM_P2
2022/11/23 00:00:15;;;;;;;0.40;0.32;;;;;;;16.84;80.06;99203.53;20788844;28;20049;-88
2022/11/23 00:10:17;;;;;;;0.40;0.30;;;;;;;16.82;80.08;99195.66;20804987;28;20042;-88
2022/11/23 00:20:19;;;;;;;0.50;0.35;;;;;;;16.82;80.07;99198.34;20804337;28;20099;-88
2022/11/23 00:30:20;;;;;;;0.40;0.40;;;;;;;16.64;79.96;99171.69;20785541;28;20409;-88
2022/11/23 00:40:21;;;;;;;1.02;0.30;;;;;;;16.66;79.96;99181.22;20801085;28;20057;-86
2022/11/23 00:50:24;;;;;;;0.40;0.30;;;;;;;16.81;79.95;99199.38;20772224;28;20056;-86
2022/11/23 01:00:25;;;;;;;0.30;0.30;;;;;;;16.81;79.89;99207.44;20783913;28;20054;-88
2022/11/23 01:10:28;;;;;;;0.40;0.40;;;;;;;16.80;79.97;99217.31;20782991;28;20038;-88
2022/11/23 01:20:30;;;;;;;1.10;0.32;;;;;;;16.57;79.87;99182.25;20799800;28;20053;-88
2022/11/23 01:30:33;;;;;;;0.43;0.38;;;;;;;16.80;79.83;99213.81;20798763;28;20107;-88
2022/11/23 01:40:41;;;;;;;0.57;0.40;;;;;;;16.78;79.88;99230.09;20749738;28;20052;-88
2022/11/23 01:50:45;;;;;;;0.85;0.43;;;;;;;16.22;79.93;99147.53;20800291;28;20061;-88
2022/11/23 02:00:46;;;;;;;2.08;0.40;;;;;;;16.78;79.82;99238.16;20778966;28;20079;-88
2022/11/23 02:10:50;;;;;;;0.20;0.20;;;;;;;16.77;79.89;99230.25;20778459;28;20061;-88
2022/11/23 02:20:52;;;;;;;0.57;0.40;;;;;;;16.76;79.91;99240.16;20777027;28;20045;-88
2022/11/23 02:30:54;;;;;;;0.52;0.38;;;;;;;16.77;79.91;99238.31;20793408;28;20368;-88
2022/11/23 02:40:57;;;;;;;0.45;0.30;;;;;;;16.31;79.68;99191.31;20778005;28;20141;-88
2022/11/23 02:50:58;;;;;;;0.30;0.30;;;;;;;16.76;79.90;99263.50;20758669;28;20516;-89
2022/11/23 03:01:00;;;;;;;0.30;0.28;;;;;;;16.75;79.89;99261.81;20774256;28;20060;-88
2022/11/23 03:11:01;;;;;;;0.88;0.30;;;;;;;16.75;79.83;99259.13;20790858;28;20053;-88
2022/11/23 03:21:07;;;;;;;0.40;0.30;;;;;;;16.54;79.73;99230.94;20790793;28;20041;-88
2022/11/23 03:31:11;;;;;;;0.20;0.20;;;;;;;16.63;79.76;99262.16;20781127;28;20063;-88
2022/11/23 03:41:12;;;;;;;0.75;0.45;;;;;;;16.63;79.91;99272.91;20794391;28;20363;-88
2022/11/23 03:51:22;;;;;;;0.65;0.30;;;;;;;16.65;79.82;99268.22;20780810;28;20481;-88
2022/11/23 04:01:24;;;;;;;0.50;0.30;;;;;;;16.73;79.61;99279.97;20788088;28;20052;-88
2022/11/23 04:11:33;;;;;;;0.30;0.30;;;;;;;16.60;79.82;99267.06;20786880;28;20103;-89
2022/11/23 04:21:34;;;;;;;0.50;0.50;;;;;;;16.71;79.84;99290.03;20770539;28;20075;-88
2022/11/23 04:31:36;;;;;;;0.35;0.30;;;;;;;16.72;79.77;99287.19;20785576;28;20041;-88
2022/11/23 04:41:47;;;;;;;0.63;0.32;;;;;;;16.72;79.78;99297.09;20785146;28;20413;-88
2022/11/23 04:51:50;;;;;;;0.30;0.30;;;;;;;16.72;79.78;99295.25;20768150;28;20045;-88
2022/11/23 05:01:54;;;;;;;0.63;0.40;;;;;;;16.37;79.86;99249.75;20767207;28;20057;-89
2022/11/23 05:12:19;;;;;;;0.85;0.40;;;;;;;16.71;79.78;99303.47;20792183;28;20085;-89
2022/11/23 05:22:21;;;;;;;0.52;0.40;;;;;;;16.71;79.83;99303.47;20782523;28;20053;-88
2022/11/23 05:32:22;;;;;;;0.47;0.30;;;;;;;16.70;79.65;99308.03;20754149;28;20137;-87
2022/11/23 05:42:24;;;;;;;0.30;0.30;;;;;;;16.71;79.62;99311.53;20783786;28;20045;-88
2022/11/23 05:52:29;;;;;;;;;;;;;;;16.70;79.77;99309.88;20763523;28;20073;-87
2022/11/23 06:02:31;;;;;;;0.35;0.20;;;;;;;16.68;79.72;99318.94;20778564;28;19928;-89
2022/11/23 06:12:38;;;;;;;0.85;0.40;;;;;;;16.48;79.68;99286.16;20777697;28;20045;-88
2022/11/23 06:22:50;;;;;;;0.40;0.40;;;;;;;16.68;79.76;99323.47;20772104;28;20095;-88
2022/11/23 06:32:53;;;;;;;0.30;0.30;;;;;;;16.67;79.69;99327.19;20724060;28;20081;-88
2022/11/23 06:42:59;;;;;;;0.32;0.30;;;;;;;16.55;79.68;99309.69;20733551;28;20053;-88
2022/11/23 06:53:12;;;;;;;0.30;0.30;;;;;;;16.66;79.66;99339.75;20743374;28;20473;-88
2022/11/23 07:03:22;;;;;;;0.70;0.52;;;;;;;16.66;79.57;99361.25;20773082;28;20437;-88
2022/11/23 07:13:30;;;;;;;0.43;0.40;;;;;;;16.47;79.67;99342.75;20758058;28;20505;-88
2022/11/23 07:23:31;;;;;;;0.47;0.45;;;;;;;16.28;79.50;99320.53;20790568;28;20045;-88
2022/11/23 07:33:34;;;;;;;0.45;0.30;;;;;;;16.55;79.50;99380.38;20775861;28;20053;-88
2022/11/23 07:43:36;;;;;;;0.40;0.20;;;;;;;16.66;79.62;99400.72;20776814;28;20050;-88
2022/11/23 07:53:37;;;;;;;0.28;0.20;;;;;;;16.66;79.55;99414.16;20781658;28;20110;-88
2022/11/23 08:03:39;;;;;;;0.43;0.20;;;;;;;16.65;79.70;99410.63;20794483;28;20064;-88
2022/11/23 08:13:40;;;;;;;0.50;0.40;;;;;;;16.66;79.64;99414.16;20777264;28;20061;-88
2022/11/23 08:23:42;;;;;;;1.42;0.60;;;;;;;16.65;78.57;99421.38;20764726;28;20271;-88
2022/11/23 08:33:43;;;;;;;2.10;0.80;;;;;;;16.74;79.54;99429.44;20769953;28;20061;-87
2022/11/23 08:43:48;;;;;;;11.20;1.08;;;;;;;16.73;81.25;99411.63;20745016;28;20056;-88
2022/11/23 08:53:49;;;;;;;5.30;0.80;;;;;;;16.95;79.80;99421.78;20746981;28;20085;-91
2022/11/23 09:03:53;;;;;;;2.28;0.80;;;;;;;17.05;79.44;99424.34;20763550;28;20561;-89
2022/11/23 09:13:54;;;;;;;2.42;0.52;;;;;;;17.11;79.07;99420.13;20770774;28;20057;-88
2022/11/23 09:23:56;;;;;;;1.90;0.68;;;;;;;17.11;78.78;99425.50;20771470;28;20103;-87
2022/11/23 09:33:58;;;;;;;1.33;0.50;;;;;;;17.06;78.54;99422.47;20766660;28;20049;-87
2022/11/23 09:44:06;;;;;;;1.38;0.57;;;;;;;16.99;78.63;99422.28;20774662;28;20059;-87
2022/11/23 09:54:10;;;;;;;2.35;0.73;;;;;;;16.92;79.05;99435.53;20772959;28;20045;-86
2022/11/23 10:04:18;;;;;;;2.72;0.80;;;;;;;16.72;78.89;99404.59;20774247;28;20063;-87
2022/11/23 10:14:22;;;;;;;3.60;0.50;;;;;;;16.85;79.08;99418.41;20764144;28;20049;-87
2022/11/23 10:24:30;;;;;;;0.82;0.45;;;;;;;16.51;79.31;99382.53;20775699;28;20053;-88
2022/11/23 10:34:43;;;;;;;2.30;0.70;;;;;;;16.80;79.34;99410.81;20772564;28;20510;-89
2022/11/23 10:44:46;;;;;;;1.73;0.50;;;;;;;16.60;79.29;99391.47;20766766;28;20061;-89
2022/11/23 10:54:54;;;;;;;2.47;1.10;;;;;;;16.77;79.49;99415.69;20761473;28;20145;-90
2022/11/23 11:05:24;;;;;;;2.45;0.63;;;;;;;16.77;79.55;99403.09;20770710;28;20057;-89
2022/11/23 11:16:04;;;;;;;2.03;0.52;;;;;;;16.54;79.31;99354.53;20790780;28;20151;-88
2022/11/23 11:26:28;;;;;;;2.17;0.60;;;;;;;16.76;79.62;99379.91;20751527;28;20502;-90
2022/11/23 11:36:35;;;;;;;1.15;0.70;;;;;;;16.58;79.64;99338.94;20770757;28;20051;-90
2022/11/23 11:46:39;;;;;;;0.77;0.47;;;;;;;16.76;79.62;99336.06;20775723;28;20053;-87
2022/11/23 11:56:44;;;;;;;2.50;0.70;;;;;;;16.77;79.92;99329.69;20780562;28;20415;-87
2022/11/23 12:06:50;;;;;;;2.70;0.50;;;;;;;16.76;79.77;99338.75;20767516;28;20061;-86
2022/11/23 12:17:07;;;;;;;1.15;0.50;;;;;;;16.77;79.88;99340.44;20776642;28;20049;-86
2022/11/23 12:27:37;;;;;;;;;;;;;;;16.77;79.87;99343.13;20770669;28;20410;-86
2022/11/23 12:38:11;;;;;;;2.47;0.70;;;;;;;16.75;80.01;99355.88;20778767;28;19927;-87
2022/11/23 12:48:25;;;;;;;0.60;0.40;;;;;;;16.73;80.03;99368.66;20754206;28;20064;-86
2022/11/23 12:58:28;;;;;;;0.50;0.50;;;;;;;16.73;79.69;99368.66;20791683;28;20077;-87
2022/11/23 13:08:59;;;;;;;1.27;0.50;;;;;;;16.73;80.14;99363.28;20755200;28;20104;-87
2022/11/23 13:19:25;;;;;;;0.80;0.43;;;;;;;16.73;79.96;99366.81;20694926;28;20064;-86
2022/11/23 13:29:48;;;;;;;0.85;0.40;;;;;;;16.71;80.04;99349.16;20775802;28;20061;-86
2022/11/23 13:39:50;;;;;;;2.10;0.63;;;;;;;16.70;80.04;99328.66;20797861;28;20049;-85
2022/11/23 13:50:07;;;;;;;1.30;0.50;;;;;;;16.69;80.15;99330.53;20763764;28;20065;-87
2022/11/23 14:00:48;;;;;;;0.80;0.80;;;;;;;16.69;79.84;99330.53;20760493;28;20045;-88
2022/11/23 14:10:50;;;;;;;1.40;0.50;;;;;;;16.68;80.31;99321.63;20777022;28;20077;-87
2022/11/23 14:21:24;;;;;;;1.83;0.40;;;;;;;16.68;80.33;99318.94;20758066;28;20156;-87
2022/11/23 14:31:56;;;;;;;0.85;0.30;;;;;;;16.68;80.30;99320.78;20747705;28;20073;-87
2022/11/23 14:42:01;;;;;;;0.45;0.28;;;;;;;16.67;80.26;99324.50;20764623;28;20152;-87
2022/11/23 14:52:04;;;;;;;0.63;0.30;;;;;;;16.30;80.25;99288.19;20750165;28;20049;-88
2022/11/23 15:02:32;;;;;;;1.30;0.40;;;;;;;16.49;80.24;99313.88;20765096;28;20053;-87
2022/11/23 15:12:45;;;;;;;1.77;0.50;;;;;;;16.65;80.15;99348.81;20742285;28;20046;-88
2022/11/23 15:22:47;;;;;;;0.50;0.35;;;;;;;16.65;80.31;99356.06;20725276;28;20069;-89
2022/11/23 15:33:10;;;;;;;1.17;0.50;;;;;;;16.48;80.27;99365.94;20763418;28;20448;-88
2022/11/23 15:43:13;;;;;;;0.70;0.45;;;;;;;16.63;80.42;99388.47;20780298;28;20069;-86
2022/11/23 15:53:14;;;;;;;0.55;0.30;;;;;;;16.63;80.21;99401.88;20675881;28;1521928;-84
2022/11/23 16:03:41;;;;;;;1.13;0.30;;;;;;;16.62;80.33;99424.38;20763194;28;20049;-86
2022/11/23 16:13:44;;;;;;;0.63;0.40;;;;;;;16.61;80.33;99422.72;20764188;28;20421;-86
2022/11/23 16:23:53;;;;;;;1.23;0.60;;;;;;;16.53;80.32;99406.56;20739746;28;20064;-88
2022/11/23 16:33:55;;;;;;;1.73;0.70;;;;;;;16.61;80.61;99414.66;20731494;28;20140;-86
2022/11/23 16:43:57;;;;;;;1.73;0.85;;;;;;;16.61;80.45;99413.81;20716726;28;20046;-87
2022/11/23 16:53:59;;;;;;;5.45;1.77;;;;;;;16.60;80.58;99423.72;20709110;28;20295;-87
2022/11/23 17:04:21;;;;;;;6.03;2.55;;;;;;;16.60;80.75;99423.72;20722027;28;20037;-88
2022/11/23 17:14:24;;;;;;;5.75;2.25;;;;;;;16.43;80.68;99392.44;20731841;28;20060;-90
2022/11/23 17:24:30;;;;;;;7.78;2.90;;;;;;;16.60;81.20;99439.84;20725518;28;21437;-89
2022/11/23 17:34:32;;;;;;;7.95;3.67;;;;;;;16.51;81.39;99441.66;20707030;28;20050;-90
2022/11/23 17:44:33;;;;;;;7.78;3.28;;;;;;;16.61;81.63;99456.81;20756194;28;20445;-90
2022/11/23 17:54:35;;;;;;;11.30;3.80;;;;;;;16.21;81.52;99397.41;20763545;28;20430;-88
2022/11/23 18:04:37;;;;;;;8.95;3.55;;;;;;;16.60;81.53;99465.88;20763400;28;20062;-89
2022/11/23 18:14:38;;;;;;;10.48;4.63;;;;;;;16.59;81.57;99481.13;20779629;28;20053;-89
2022/11/23 18:24:40;;;;;;;8.50;3.78;;;;;;;16.26;81.62;99445.25;20785870;28;20053;-88
2022/11/23 18:34:41;;;;;;;7.85;3.63;;;;;;;16.37;81.66;99483.41;20774371;28;20045;-89
2022/11/23 18:44:43;;;;;;;8.38;3.80;;;;;;;16.59;81.71;99513.38;20853253;28;20044;-88
2022/11/23 18:54:44;;;;;;;10.63;4.20;;;;;;;16.58;81.61;99522.44;20871338;28;20053;-86
2022/11/23 19:04:46;;;;;;;8.45;3.33;;;;;;;16.58;81.73;99533.19;20872200;28;20115;-88
2022/11/23 19:14:48;;;;;;;8.27;3.25;;;;;;;16.58;81.64;99532.38;20867934;28;20057;-89
2022/11/23 19:24:50;;;;;;;6.70;3.28;;;;;;;16.26;81.69;99507.84;20774697;28;20088;-89
2022/11/23 19:34:53;;;;;;;8.52;3.55;;;;;;;16.38;81.56;99532.59;20774559;28;20049;-88
2022/11/23 19:44:55;;;;;;;8.32;3.28;;;;;;;16.30;81.74;99552.19;20777513;28;20077;-88
2022/11/23 19:54:57;;;;;;;6.18;2.97;;;;;;;16.57;81.61;99595.13;20806706;28;20042;-88
2022/11/23 20:04:58;;;;;;;7.28;3.72;;;;;;;16.57;81.78;99608.56;20807208;28;20053;-89
2022/11/23 20:15:00;;;;;;;7.72;3.22;;;;;;;16.57;81.91;99617.50;20807305;28;20041;-88
2022/11/23 20:25:02;;;;;;;7.88;3.03;;;;;;;16.57;81.69;99630.06;20804802;28;20560;-88
2022/11/23 20:35:04;;;;;;;8.68;3.50;;;;;;;16.55;81.76;99622.19;20786932;28;20075;-89
2022/11/23 20:45:06;;;;;;;7.63;3.42;;;;;;;16.55;81.80;99635.59;20802188;28;20053;-87
2022/11/23 20:55:07;;;;;;;7.55;3.13;;;;;;;16.37;81.80;99628.47;20773721;28;20447;-88
2022/11/23 21:05:09;;;;;;;4.97;2.70;;;;;;;16.55;81.71;99661.63;20702846;28;20202;-88
2022/11/23 21:15:11;;;;;;;5.85;2.92;;;;;;;16.44;81.86;99650.13;20762421;28;20068;-87
2022/11/23 21:25:12;;;;;;;6.80;2.92;;;;;;;16.55;81.77;99675.06;20782461;28;20037;-87
2022/11/23 21:35:14;;;;;;;6.38;3.05;;;;;;;16.55;81.89;99683.13;20781356;28;20073;-90
2022/11/23 21:45:15;;;;;;;5.72;2.83;;;;;;;16.54;81.85;99693.03;20765460;28;20925;-89
2022/11/23 21:55:17;;;;;;;4.60;2.67;;;;;;;16.43;81.77;99678.00;20780392;28;20045;-88
2022/11/23 22:05:19;;;;;;;5.80;2.80;;;;;;;16.55;81.87;99699.22;20796999;28;20049;-88
2022/11/23 22:15:21;;;;;;;6.00;2.47;;;;;;;16.45;81.93;99699.34;20796565;28;20140;-88
2022/11/23 22:25:22;;;;;;;4.72;2.40;;;;;;;16.54;81.88;99746.78;20778162;28;20049;-88
2022/11/23 22:35:24;;;;;;;4.95;2.63;;;;;;;16.55;81.82;99766.41;20794765;28;20588;-88
2022/11/23 22:45:25;;;;;;;4.93;2.67;;;;;;;15.91;81.88;99659.97;20794920;28;20053;-88
2022/11/23 22:55:27;;;;;;;5.28;2.80;;;;;;;16.55;81.82;99763.72;20793516;28;20073;-88
2022/11/23 23:05:29;;;;;;;4.32;2.25;;;;;;;16.06;81.70;99698.69;20775091;28;20045;-87
2022/11/23 23:15:31;;;;;;;5.13;2.53;;;;;;;16.53;81.74;99788.91;20796405;28;20498;-89
2022/11/23 23:25:33;;;;;;;4.50;2.35;;;;;;;16.34;81.68;99773.78;20787768;28;20049;-86
2022/11/23 23:35:34;;;;;;;7.20;3.05;;;;;;;16.53;81.85;99807.69;20807502;28;20061;-84
2022/11/23 23:45:36;;;;;;;6.40;2.33;;;;;;;16.06;81.68;99736.28;20790687;28;20054;-88
2022/11/23 23:55:38;;;;;;;4.05;2.00;;;;;;;16.53;81.76;99820.31;20789895;28;20453;-88
